sensor_id;sensor_type;location;lat;lon;timestamp;temperature;humidity
54832;DHT22;40730;53.068;6.572;2022-12-07T00:02:17;2.90;99.90
54832;DHT22;40730;53.068;6.572;2022-12-07T00:05:13;3.70;99.90
54832;DHT22;40730;53.068;6.572;2022-12-07T00:08:15;3.30;99.90
54832;DHT22;40730;53.068;6.572;2022-12-07T00:11:40;2.60;99.90
54832;DHT22;40730;53.068;6.572;2022-12-07T00:14:50;3.70;99.90
54832;DHT22;40730;53.068;6.572;2022-12-07T00:17:27;3.10;99.90
54832;DHT22;40730;53.068;6.572;2022-12-07T00:20:37;3.10;99.90
54832;DHT22;40730;53.068;6.572;2022-12-07T00:23:20;3.10;99.90
54832;DHT22;40730;53.068;6.572;2022-12-07T00:26:02;3.10;99.90
54832;DHT22;40730;53.068;6.572;2022-12-07T00:29:20;2.60;99.90
54832;DHT22;40730;53.068;6.572;2022-12-07T00:32:16;3.30;99.90
54832;DHT22;40730;53.068;6.572;2022-12-07T00:34:50;3.50;99.90
54832;DHT22;40730;53.068;6.572;2022-12-07T00:38:06;2.50;99.90
54832;DHT22;40730;53.068;6.572;2022-12-07T00:41:19;2.80;99.90
54832;DHT22;40730;53.068;6.572;2022-12-07T00:44:08;2.70;99.90
54832;DHT22;40730;53.068;6.572;2022-12-07T00:46:53;2.70;99.90
54832;DHT22;40730;53.068;6.572;2022-12-07T00:49:48;2.70;99.90
54832;DHT22;40730;53.068;6.572;2022-12-07T00:52:52;2.80;99.90
54832;DHT22;40730;53.068;6.572;2022-12-07T00:56:18;2.60;99.90
54832;DHT22;40730;53.068;6.572;2022-12-07T00:59:06;2.70;99.90
54832;DHT22;40730;53.068;6.572;2022-12-07T01:02:03;2.80;99.90
54832;DHT22;40730;53.068;6.572;2022-12-07T01:04:57;2.70;99.90
54832;DHT22;40730;53.068;6.572;2022-12-07T01:07:51;2.70;99.90
54832;DHT22;40730;53.068;6.572;2022-12-07T01:11:02;2.90;99.90
54832;DHT22;40730;53.068;6.572;2022-12-07T01:13:58;2.80;99.90
54832;DHT22;40730;53.068;6.572;2022-12-07T01:17:24;2.90;99.90
54832;DHT22;40730;53.068;6.572;2022-12-07T01:20:21;3.30;99.90
54832;DHT22;40730;53.068;6.572;2022-12-07T01:23:37;3.40;99.90
54832;DHT22;40730;53.068;6.572;2022-12-07T01:26:26;3.60;99.90
54832;DHT22;40730;53.068;6.572;2022-12-07T01:29:16;2.90;99.90
54832;DHT22;40730;53.068;6.572;2022-12-07T01:31:51;3.50;99.90
54832;DHT22;40730;53.068;6.572;2022-12-07T01:34:16;3.30;99.90
54832;DHT22;40730;53.068;6.572;2022-12-07T01:36:42;3.30;99.90
54832;DHT22;40730;53.068;6.572;2022-12-07T01:39:09;3.30;99.90
54832;DHT22;40730;53.068;6.572;2022-12-07T01:41:38;3.30;99.90
54832;DHT22;40730;53.068;6.572;2022-12-07T01:46:48;3.40;99.90
54832;DHT22;40730;53.068;6.572;2022-12-07T01:49:28;3.40;99.90
54832;DHT22;40730;53.068;6.572;2022-12-07T01:54:52;3.50;99.90
54832;DHT22;40730;53.068;6.572;2022-12-07T01:57:19;3.40;99.90
54832;DHT22;40730;53.068;6.572;2022-12-07T01:59:46;3.30;99.90
54832;DHT22;40730;53.068;6.572;2022-12-07T02:02:27;3.30;99.90
54832;DHT22;40730;53.068;6.572;2022-12-07T02:04:55;3.30;99.90
54832;DHT22;40730;53.068;6.572;2022-12-07T02:07:21;3.20;99.90
54832;DHT22;40730;53.068;6.572;2022-12-07T02:09:48;3.20;99.90
54832;DHT22;40730;53.068;6.572;2022-12-07T02:12:14;3.10;99.90
54832;DHT22;40730;53.068;6.572;2022-12-07T02:14:39;3.10;99.90
54832;DHT22;40730;53.068;6.572;2022-12-07T02:17:17;3.00;99.90
54832;DHT22;40730;53.068;6.572;2022-12-07T02:22:59;3.00;99.90
54832;DHT22;40730;53.068;6.572;2022-12-07T02:28:21;3.00;99.90
54832;DHT22;40730;53.068;6.572;2022-12-07T02:30:52;3.00;99.90
54832;DHT22;40730;53.068;6.572;2022-12-07T02:33:32;3.10;99.90
54832;DHT22;40730;53.068;6.572;2022-12-07T02:36:10;3.10;99.90
54832;DHT22;40730;53.068;6.572;2022-12-07T02:38:43;3.10;99.90
54832;DHT22;40730;53.068;6.572;2022-12-07T02:41:16;3.10;99.90
54832;DHT22;40730;53.068;6.572;2022-12-07T02:43:57;3.10;99.90
54832;DHT22;40730;53.068;6.572;2022-12-07T02:46:31;3.10;99.90
54832;DHT22;40730;53.068;6.572;2022-12-07T02:49:17;3.10;99.90
54832;DHT22;40730;53.068;6.572;2022-12-07T02:51:46;3.20;99.90
54832;DHT22;40730;53.068;6.572;2022-12-07T02:54:16;3.30;99.90
54832;DHT22;40730;53.068;6.572;2022-12-07T02:59:36;3.60;99.90
54832;DHT22;40730;53.068;6.572;2022-12-07T03:10:09;3.60;99.90
54832;DHT22;40730;53.068;6.572;2022-12-07T03:12:44;3.50;99.90
54832;DHT22;40730;53.068;6.572;2022-12-07T03:15:31;3.40;99.90
54832;DHT22;40730;53.068;6.572;2022-12-07T03:17:57;3.40;99.90
54832;DHT22;40730;53.068;6.572;2022-12-07T03:20:25;3.30;99.90
54832;DHT22;40730;53.068;6.572;2022-12-07T03:22:53;3.40;99.90
54832;DHT22;40730;53.068;6.572;2022-12-07T03:25:20;3.40;99.90
54832;DHT22;40730;53.068;6.572;2022-12-07T03:27:49;3.40;99.90
54832;DHT22;40730;53.068;6.572;2022-12-07T03:30:20;3.50;99.90
54832;DHT22;40730;53.068;6.572;2022-12-07T03:32:53;3.50;99.90
54832;DHT22;40730;53.068;6.572;2022-12-07T03:35:40;3.50;99.90
54832;DHT22;40730;53.068;6.572;2022-12-07T03:38:23;3.50;99.90
54832;DHT22;40730;53.068;6.572;2022-12-07T03:40:57;3.50;99.90
54832;DHT22;40730;53.068;6.572;2022-12-07T03:43:25;3.50;99.90
54832;DHT22;40730;53.068;6.572;2022-12-07T03:46:11;3.50;99.90
54832;DHT22;40730;53.068;6.572;2022-12-07T03:48:53;3.40;99.90
54832;DHT22;40730;53.068;6.572;2022-12-07T03:51:25;3.40;99.90
54832;DHT22;40730;53.068;6.572;2022-12-07T03:56:54;3.30;99.90
54832;DHT22;40730;53.068;6.572;2022-12-07T03:59:20;3.30;99.90
54832;DHT22;40730;53.068;6.572;2022-12-07T04:01:53;3.30;99.90
54832;DHT22;40730;53.068;6.572;2022-12-07T04:04:20;3.30;99.90
54832;DHT22;40730;53.068;6.572;2022-12-07T04:06:45;3.30;99.90
54832;DHT22;40730;53.068;6.572;2022-12-07T04:09:11;3.30;99.90
54832;DHT22;40730;53.068;6.572;2022-12-07T04:11:36;3.30;99.90
54832;DHT22;40730;53.068;6.572;2022-12-07T04:14:02;3.30;99.90
54832;DHT22;40730;53.068;6.572;2022-12-07T04:16:50;3.20;99.90
54832;DHT22;40730;53.068;6.572;2022-12-07T04:19:18;3.20;99.90
54832;DHT22;40730;53.068;6.572;2022-12-07T04:21:44;3.10;99.90
54832;DHT22;40730;53.068;6.572;2022-12-07T04:24:11;3.10;99.90
54832;DHT22;40730;53.068;6.572;2022-12-07T04:26:36;3.00;99.90
54832;DHT22;40730;53.068;6.572;2022-12-07T04:29:02;3.00;99.90
54832;DHT22;40730;53.068;6.572;2022-12-07T04:31:28;3.00;99.90
54832;DHT22;40730;53.068;6.572;2022-12-07T04:33:53;3.00;99.90
54832;DHT22;40730;53.068;6.572;2022-12-07T04:36:19;3.00;99.90
54832;DHT22;40730;53.068;6.572;2022-12-07T04:38:46;2.90;99.90
54832;DHT22;40730;53.068;6.572;2022-12-07T04:41:12;3.00;99.90
54832;DHT22;40730;53.068;6.572;2022-12-07T04:43:37;3.00;99.90
54832;DHT22;40730;53.068;6.572;2022-12-07T04:46:03;3.00;99.90
54832;DHT22;40730;53.068;6.572;2022-12-07T04:48:29;3.00;99.90
54832;DHT22;40730;53.068;6.572;2022-12-07T04:50:54;3.10;99.90
54832;DHT22;40730;53.068;6.572;2022-12-07T04:53:20;3.10;99.90
54832;DHT22;40730;53.068;6.572;2022-12-07T04:55:46;3.20;99.90
54832;DHT22;40730;53.068;6.572;2022-12-07T04:58:12;3.30;99.90
54832;DHT22;40730;53.068;6.572;2022-12-07T05:00:38;3.40;99.90
54832;DHT22;40730;53.068;6.572;2022-12-07T05:03:04;3.60;99.90
54832;DHT22;40730;53.068;6.572;2022-12-07T05:05:29;3.70;99.90
54832;DHT22;40730;53.068;6.572;2022-12-07T05:07:55;3.70;99.90
54832;DHT22;40730;53.068;6.572;2022-12-07T05:10:21;3.80;99.90
54832;DHT22;40730;53.068;6.572;2022-12-07T05:12:46;3.80;99.90
54832;DHT22;40730;53.068;6.572;2022-12-07T05:15:13;3.90;99.90
54832;DHT22;40730;53.068;6.572;2022-12-07T05:17:38;3.90;99.90
54832;DHT22;40730;53.068;6.572;2022-12-07T05:20:05;3.90;99.90
54832;DHT22;40730;53.068;6.572;2022-12-07T05:22:31;3.80;99.90
54832;DHT22;40730;53.068;6.572;2022-12-07T05:24:56;3.80;99.90
54832;DHT22;40730;53.068;6.572;2022-12-07T05:27:22;3.70;99.90
54832;DHT22;40730;53.068;6.572;2022-12-07T05:29:50;3.60;99.90
54832;DHT22;40730;53.068;6.572;2022-12-07T05:32:16;3.40;99.90
54832;DHT22;40730;53.068;6.572;2022-12-07T05:34:41;3.30;99.90
54832;DHT22;40730;53.068;6.572;2022-12-07T05:37:07;3.10;99.90
54832;DHT22;40730;53.068;6.572;2022-12-07T05:39:33;3.00;99.90
54832;DHT22;40730;53.068;6.572;2022-12-07T05:41:58;2.90;99.90
54832;DHT22;40730;53.068;6.572;2022-12-07T05:44:40;2.70;99.90
54832;DHT22;40730;53.068;6.572;2022-12-07T05:47:06;2.60;99.90
54832;DHT22;40730;53.068;6.572;2022-12-07T05:49:32;2.50;99.90
54832;DHT22;40730;53.068;6.572;2022-12-07T05:51:58;2.40;99.90
54832;DHT22;40730;53.068;6.572;2022-12-07T05:54:24;2.30;99.90
54832;DHT22;40730;53.068;6.572;2022-12-07T05:56:49;2.30;99.90
54832;DHT22;40730;53.068;6.572;2022-12-07T05:59:15;2.20;99.90
54832;DHT22;40730;53.068;6.572;2022-12-07T06:01:54;2.20;99.90
54832;DHT22;40730;53.068;6.572;2022-12-07T06:04:21;2.20;99.90
54832;DHT22;40730;53.068;6.572;2022-12-07T06:06:47;2.20;99.90
54832;DHT22;40730;53.068;6.572;2022-12-07T06:09:13;2.10;99.90
54832;DHT22;40730;53.068;6.572;2022-12-07T06:11:39;2.10;99.90
54832;DHT22;40730;53.068;6.572;2022-12-07T06:14:24;2.10;99.90
54832;DHT22;40730;53.068;6.572;2022-12-07T06:16:49;2.00;99.90
54832;DHT22;40730;53.068;6.572;2022-12-07T06:19:15;2.00;99.90
54832;DHT22;40730;53.068;6.572;2022-12-07T06:21:41;2.00;99.90
54832;DHT22;40730;53.068;6.572;2022-12-07T06:24:07;2.00;99.90
54832;DHT22;40730;53.068;6.572;2022-12-07T06:26:32;2.00;99.90
54832;DHT22;40730;53.068;6.572;2022-12-07T06:28:58;2.00;99.90
54832;DHT22;40730;53.068;6.572;2022-12-07T06:31:24;2.00;99.90
54832;DHT22;40730;53.068;6.572;2022-12-07T06:33:49;2.00;99.90
54832;DHT22;40730;53.068;6.572;2022-12-07T06:36:15;2.10;99.90
54832;DHT22;40730;53.068;6.572;2022-12-07T06:38:40;2.30;99.90
54832;DHT22;40730;53.068;6.572;2022-12-07T06:41:06;2.40;99.90
54832;DHT22;40730;53.068;6.572;2022-12-07T06:43:32;2.50;99.90
54832;DHT22;40730;53.068;6.572;2022-12-07T06:45:58;2.60;99.90
54832;DHT22;40730;53.068;6.572;2022-12-07T06:48:23;2.60;99.90
54832;DHT22;40730;53.068;6.572;2022-12-07T06:50:49;2.60;99.90
54832;DHT22;40730;53.068;6.572;2022-12-07T06:53:14;2.70;99.90
54832;DHT22;40730;53.068;6.572;2022-12-07T06:55:40;2.70;99.90
54832;DHT22;40730;53.068;6.572;2022-12-07T06:58:06;2.80;99.90
54832;DHT22;40730;53.068;6.572;2022-12-07T07:00:32;2.70;99.90
54832;DHT22;40730;53.068;6.572;2022-12-07T07:03:00;2.70;99.90
54832;DHT22;40730;53.068;6.572;2022-12-07T07:05:25;2.60;99.90
54832;DHT22;40730;53.068;6.572;2022-12-07T07:07:51;2.50;99.90
54832;DHT22;40730;53.068;6.572;2022-12-07T07:10:17;2.40;99.90
54832;DHT22;40730;53.068;6.572;2022-12-07T07:12:42;2.30;99.90
54832;DHT22;40730;53.068;6.572;2022-12-07T07:15:08;2.30;99.90
54832;DHT22;40730;53.068;6.572;2022-12-07T07:17:35;2.20;99.90
54832;DHT22;40730;53.068;6.572;2022-12-07T07:20:00;2.20;99.90
54832;DHT22;40730;53.068;6.572;2022-12-07T07:22:26;2.20;99.90
54832;DHT22;40730;53.068;6.572;2022-12-07T07:24:51;2.20;99.90
54832;DHT22;40730;53.068;6.572;2022-12-07T07:27:17;2.20;99.90
54832;DHT22;40730;53.068;6.572;2022-12-07T07:29:43;2.30;99.90
54832;DHT22;40730;53.068;6.572;2022-12-07T07:32:08;2.40;99.90
54832;DHT22;40730;53.068;6.572;2022-12-07T07:34:34;2.40;99.90
54832;DHT22;40730;53.068;6.572;2022-12-07T07:36:59;2.40;99.90
54832;DHT22;40730;53.068;6.572;2022-12-07T07:39:25;2.50;99.90
54832;DHT22;40730;53.068;6.572;2022-12-07T07:41:51;2.40;99.90
54832;DHT22;40730;53.068;6.572;2022-12-07T07:44:16;2.40;99.90
54832;DHT22;40730;53.068;6.572;2022-12-07T07:46:42;2.40;99.90
54832;DHT22;40730;53.068;6.572;2022-12-07T07:49:09;2.30;99.90
54832;DHT22;40730;53.068;6.572;2022-12-07T07:51:35;2.20;99.90
54832;DHT22;40730;53.068;6.572;2022-12-07T07:54:01;2.10;99.90
54832;DHT22;40730;53.068;6.572;2022-12-07T07:56:26;2.00;99.90
54832;DHT22;40730;53.068;6.572;2022-12-07T07:58:53;1.90;99.90
54832;DHT22;40730;53.068;6.572;2022-12-07T08:01:18;1.90;99.90
54832;DHT22;40730;53.068;6.572;2022-12-07T08:03:46;1.80;99.90
54832;DHT22;40730;53.068;6.572;2022-12-07T08:06:11;2.30;99.90
54832;DHT22;40730;53.068;6.572;2022-12-07T08:08:37;1.60;99.90
54832;DHT22;40730;53.068;6.572;2022-12-07T08:11:06;1.50;99.90
54832;DHT22;40730;53.068;6.572;2022-12-07T08:13:32;1.50;99.90
54832;DHT22;40730;53.068;6.572;2022-12-07T08:15:58;1.50;99.90
54832;DHT22;40730;53.068;6.572;2022-12-07T08:18:28;1.40;99.90
54832;DHT22;40730;53.068;6.572;2022-12-07T08:20:59;1.50;99.90
54832;DHT22;40730;53.068;6.572;2022-12-07T08:23:25;1.50;99.90
54832;DHT22;40730;53.068;6.572;2022-12-07T08:25:50;1.60;99.90
54832;DHT22;40730;53.068;6.572;2022-12-07T08:28:16;1.90;99.90
54832;DHT22;40730;53.068;6.572;2022-12-07T08:30:41;2.10;99.90
54832;DHT22;40730;53.068;6.572;2022-12-07T08:33:08;2.40;99.90
54832;DHT22;40730;53.068;6.572;2022-12-07T08:35:34;2.50;99.90
54832;DHT22;40730;53.068;6.572;2022-12-07T08:37:59;2.70;99.90
54832;DHT22;40730;53.068;6.572;2022-12-07T08:40:27;2.80;99.90
54832;DHT22;40730;53.068;6.572;2022-12-07T08:42:53;2.80;99.90
54832;DHT22;40730;53.068;6.572;2022-12-07T08:45:20;2.90;99.90
54832;DHT22;40730;53.068;6.572;2022-12-07T08:48:07;2.80;99.90
54832;DHT22;40730;53.068;6.572;2022-12-07T08:50:34;2.80;99.90
54832;DHT22;40730;53.068;6.572;2022-12-07T08:53:02;2.80;99.90
54832;DHT22;40730;53.068;6.572;2022-12-07T08:55:30;2.80;99.90
54832;DHT22;40730;53.068;6.572;2022-12-07T08:57:57;2.70;99.90
54832;DHT22;40730;53.068;6.572;2022-12-07T09:00:23;2.70;99.90
54832;DHT22;40730;53.068;6.572;2022-12-07T09:02:49;2.80;99.90
54832;DHT22;40730;53.068;6.572;2022-12-07T09:05:15;2.90;99.90
54832;DHT22;40730;53.068;6.572;2022-12-07T09:07:42;3.00;99.90
54832;DHT22;40730;53.068;6.572;2022-12-07T09:10:09;3.10;99.90
54832;DHT22;40730;53.068;6.572;2022-12-07T09:12:34;3.10;99.90
54832;DHT22;40730;53.068;6.572;2022-12-07T09:15:00;3.10;99.90
54832;DHT22;40730;53.068;6.572;2022-12-07T09:17:26;3.10;99.90
54832;DHT22;40730;53.068;6.572;2022-12-07T09:19:52;3.10;99.90
54832;DHT22;40730;53.068;6.572;2022-12-07T09:22:17;3.20;99.90
54832;DHT22;40730;53.068;6.572;2022-12-07T09:24:43;3.30;99.90
54832;DHT22;40730;53.068;6.572;2022-12-07T09:27:11;3.40;99.90
54832;DHT22;40730;53.068;6.572;2022-12-07T09:29:37;3.50;99.90
54832;DHT22;40730;53.068;6.572;2022-12-07T09:32:02;3.70;99.90
54832;DHT22;40730;53.068;6.572;2022-12-07T09:34:31;3.90;99.90
54832;DHT22;40730;53.068;6.572;2022-12-07T09:36:57;4.20;99.90
54832;DHT22;40730;53.068;6.572;2022-12-07T09:39:23;4.20;99.90
54832;DHT22;40730;53.068;6.572;2022-12-07T09:41:49;4.30;99.90
54832;DHT22;40730;53.068;6.572;2022-12-07T09:44:20;4.30;99.90
54832;DHT22;40730;53.068;6.572;2022-12-07T09:46:47;4.30;99.90
54832;DHT22;40730;53.068;6.572;2022-12-07T09:49:21;4.30;99.90
54832;DHT22;40730;53.068;6.572;2022-12-07T09:52:25;4.30;99.90
54832;DHT22;40730;53.068;6.572;2022-12-07T09:54:50;4.30;99.90
54832;DHT22;40730;53.068;6.572;2022-12-07T09:57:16;4.20;99.90
54832;DHT22;40730;53.068;6.572;2022-12-07T09:59:42;4.20;99.90
54832;DHT22;40730;53.068;6.572;2022-12-07T10:02:35;4.20;99.90
54832;DHT22;40730;53.068;6.572;2022-12-07T10:05:01;4.10;99.90
54832;DHT22;40730;53.068;6.572;2022-12-07T10:07:29;4.10;99.90
54832;DHT22;40730;53.068;6.572;2022-12-07T10:09:55;4.10;99.90
54832;DHT22;40730;53.068;6.572;2022-12-07T10:12:20;4.10;99.90
54832;DHT22;40730;53.068;6.572;2022-12-07T10:15:01;4.20;99.90
54832;DHT22;40730;53.068;6.572;2022-12-07T10:17:37;4.30;99.90
54832;DHT22;40730;53.068;6.572;2022-12-07T10:20:25;4.30;99.90
54832;DHT22;40730;53.068;6.572;2022-12-07T10:23:16;4.30;99.90
54832;DHT22;40730;53.068;6.572;2022-12-07T10:25:42;4.30;99.90
54832;DHT22;40730;53.068;6.572;2022-12-07T10:30:53;4.60;99.90
54832;DHT22;40730;53.068;6.572;2022-12-07T10:36:15;4.70;99.90
54832;DHT22;40730;53.068;6.572;2022-12-07T10:38:45;4.70;99.90
54832;DHT22;40730;53.068;6.572;2022-12-07T10:41:11;4.80;99.90
54832;DHT22;40730;53.068;6.572;2022-12-07T10:43:37;4.80;99.90
54832;DHT22;40730;53.068;6.572;2022-12-07T10:46:26;4.90;99.90
54832;DHT22;40730;53.068;6.572;2022-12-07T10:52:06;5.00;99.90
54832;DHT22;40730;53.068;6.572;2022-12-07T10:57:32;5.20;99.90
54832;DHT22;40730;53.068;6.572;2022-12-07T11:00:12;5.30;99.90
54832;DHT22;40730;53.068;6.572;2022-12-07T11:05:54;5.70;99.90
54832;DHT22;40730;53.068;6.572;2022-12-07T11:14:01;6.10;99.90
54832;DHT22;40730;53.068;6.572;2022-12-07T11:22:09;5.70;99.90
54832;DHT22;40730;53.068;6.572;2022-12-07T11:27:30;5.30;99.90
54832;DHT22;40730;53.068;6.572;2022-12-07T11:35:39;4.90;99.90
54832;DHT22;40730;53.068;6.572;2022-12-07T11:38:20;4.80;99.90
54832;DHT22;40730;53.068;6.572;2022-12-07T11:40:49;4.70;99.90
54832;DHT22;40730;53.068;6.572;2022-12-07T11:43:26;4.80;99.90
54832;DHT22;40730;53.068;6.572;2022-12-07T11:46:05;4.90;99.90
54832;DHT22;40730;53.068;6.572;2022-12-07T11:49:04;5.10;99.90
54832;DHT22;40730;53.068;6.572;2022-12-07T11:51:36;5.20;99.90
54832;DHT22;40730;53.068;6.572;2022-12-07T11:54:12;5.40;99.90
54832;DHT22;40730;53.068;6.572;2022-12-07T11:56:39;5.50;99.90
54832;DHT22;40730;53.068;6.572;2022-12-07T11:59:29;5.70;99.90
54832;DHT22;40730;53.068;6.572;2022-12-07T12:02:20;5.90;99.90
54832;DHT22;40730;53.068;6.572;2022-12-07T12:05:12;6.20;99.90
54832;DHT22;40730;53.068;6.572;2022-12-07T12:07:39;6.40;99.90
54832;DHT22;40730;53.068;6.572;2022-12-07T12:10:21;6.60;99.90
54832;DHT22;40730;53.068;6.572;2022-12-07T12:13:14;6.90;99.90
54832;DHT22;40730;53.068;6.572;2022-12-07T12:16:04;7.10;99.90
54832;DHT22;40730;53.068;6.572;2022-12-07T12:21:12;7.20;99.90
54832;DHT22;40730;53.068;6.572;2022-12-07T12:23:44;7.30;99.90
54832;DHT22;40730;53.068;6.572;2022-12-07T12:26:21;7.30;99.90
54832;DHT22;40730;53.068;6.572;2022-12-07T12:33:57;7.00;99.90
54832;DHT22;40730;53.068;6.572;2022-12-07T12:36:45;6.80;99.90
54832;DHT22;40730;53.068;6.572;2022-12-07T12:39:17;6.70;99.90
54832;DHT22;40730;53.068;6.572;2022-12-07T12:46:55;6.20;99.90
54832;DHT22;40730;53.068;6.572;2022-12-07T12:51:51;6.10;99.90
54832;DHT22;40730;53.068;6.572;2022-12-07T13:02:58;5.90;99.90
54832;DHT22;40730;53.068;6.572;2022-12-07T13:05:31;5.50;99.90
54832;DHT22;40730;53.068;6.572;2022-12-07T13:07:58;5.20;99.90
54832;DHT22;40730;53.068;6.572;2022-12-07T13:15:45;4.60;99.90
54832;DHT22;40730;53.068;6.572;2022-12-07T13:18:43;4.50;99.90
54832;DHT22;40730;53.068;6.572;2022-12-07T13:23:38;4.40;99.90
54832;DHT22;40730;53.068;6.572;2022-12-07T13:26:14;4.30;99.90
54832;DHT22;40730;53.068;6.572;2022-12-07T13:31:43;4.30;99.90
54832;DHT22;40730;53.068;6.572;2022-12-07T13:37:04;4.20;99.90
54832;DHT22;40730;53.068;6.572;2022-12-07T13:39:35;4.20;99.90
54832;DHT22;40730;53.068;6.572;2022-12-07T13:44:47;4.20;99.90
54832;DHT22;40730;53.068;6.572;2022-12-07T13:47:16;4.10;99.90
54832;DHT22;40730;53.068;6.572;2022-12-07T13:49:51;4.10;99.90
54832;DHT22;40730;53.068;6.572;2022-12-07T13:52:22;4.00;99.90
54832;DHT22;40730;53.068;6.572;2022-12-07T13:54:54;4.00;99.90
54832;DHT22;40730;53.068;6.572;2022-12-07T13:57:21;4.00;99.90
54832;DHT22;40730;53.068;6.572;2022-12-07T13:59:47;3.90;99.90
54832;DHT22;40730;53.068;6.572;2022-12-07T14:02:24;3.90;99.90
54832;DHT22;40730;53.068;6.572;2022-12-07T14:04:51;3.90;99.90
54832;DHT22;40730;53.068;6.572;2022-12-07T14:07:28;3.90;99.90
54832;DHT22;40730;53.068;6.572;2022-12-07T14:10:02;3.90;99.90
54832;DHT22;40730;53.068;6.572;2022-12-07T14:12:30;3.80;99.90
54832;DHT22;40730;53.068;6.572;2022-12-07T14:14:56;3.80;99.90
54832;DHT22;40730;53.068;6.572;2022-12-07T14:17:24;3.80;99.90
54832;DHT22;40730;53.068;6.572;2022-12-07T14:24:49;3.60;99.90
54832;DHT22;40730;53.068;6.572;2022-12-07T14:27:22;3.70;99.90
54832;DHT22;40730;53.068;6.572;2022-12-07T14:29:50;3.50;99.90
54832;DHT22;40730;53.068;6.572;2022-12-07T14:32:27;3.50;99.90
54832;DHT22;40730;53.068;6.572;2022-12-07T14:35:10;3.50;99.90
54832;DHT22;40730;53.068;6.572;2022-12-07T14:37:37;3.50;99.90
54832;DHT22;40730;53.068;6.572;2022-12-07T14:40:03;3.50;99.90
54832;DHT22;40730;53.068;6.572;2022-12-07T14:42:30;3.50;99.90
54832;DHT22;40730;53.068;6.572;2022-12-07T14:44:56;3.50;99.90
54832;DHT22;40730;53.068;6.572;2022-12-07T14:47:23;3.50;99.90
54832;DHT22;40730;53.068;6.572;2022-12-07T14:49:48;3.50;99.90
54832;DHT22;40730;53.068;6.572;2022-12-07T14:52:21;3.50;99.90
54832;DHT22;40730;53.068;6.572;2022-12-07T14:54:46;3.60;99.90
54832;DHT22;40730;53.068;6.572;2022-12-07T14:57:12;3.60;99.90
54832;DHT22;40730;53.068;6.572;2022-12-07T14:59:38;3.60;99.90
54832;DHT22;40730;53.068;6.572;2022-12-07T15:02:05;3.60;99.90
54832;DHT22;40730;53.068;6.572;2022-12-07T15:04:31;3.60;99.90
54832;DHT22;40730;53.068;6.572;2022-12-07T15:06:58;3.60;99.90
54832;DHT22;40730;53.068;6.572;2022-12-07T15:09:24;3.70;99.90
54832;DHT22;40730;53.068;6.572;2022-12-07T15:11:50;3.70;99.90
54832;DHT22;40730;53.068;6.572;2022-12-07T15:14:16;3.70;99.90
54832;DHT22;40730;53.068;6.572;2022-12-07T15:16:42;3.60;99.90
54832;DHT22;40730;53.068;6.572;2022-12-07T15:19:16;3.60;99.90
54832;DHT22;40730;53.068;6.572;2022-12-07T15:21:43;3.50;99.90
54832;DHT22;40730;53.068;6.572;2022-12-07T15:24:11;3.50;99.90
54832;DHT22;40730;53.068;6.572;2022-12-07T15:26:38;3.50;99.90
54832;DHT22;40730;53.068;6.572;2022-12-07T15:29:04;3.40;99.90
54832;DHT22;40730;53.068;6.572;2022-12-07T15:31:30;3.30;99.90
54832;DHT22;40730;53.068;6.572;2022-12-07T15:33:56;3.30;99.90
54832;DHT22;40730;53.068;6.572;2022-12-07T15:36:24;3.20;99.90
54832;DHT22;40730;53.068;6.572;2022-12-07T15:38:50;3.10;99.90
54832;DHT22;40730;53.068;6.572;2022-12-07T15:41:18;3.00;99.90
54832;DHT22;40730;53.068;6.572;2022-12-07T15:43:44;2.90;99.90
54832;DHT22;40730;53.068;6.572;2022-12-07T15:46:32;2.80;99.90
54832;DHT22;40730;53.068;6.572;2022-12-07T15:48:58;2.80;99.90
54832;DHT22;40730;53.068;6.572;2022-12-07T15:51:24;2.70;99.90
54832;DHT22;40730;53.068;6.572;2022-12-07T15:53:50;2.70;99.90
54832;DHT22;40730;53.068;6.572;2022-12-07T15:56:16;2.70;99.90
54832;DHT22;40730;53.068;6.572;2022-12-07T15:58:41;2.60;99.90
54832;DHT22;40730;53.068;6.572;2022-12-07T16:01:15;2.60;99.90
54832;DHT22;40730;53.068;6.572;2022-12-07T16:03:41;2.60;99.90
54832;DHT22;40730;53.068;6.572;2022-12-07T16:06:07;2.50;99.90
54832;DHT22;40730;53.068;6.572;2022-12-07T16:08:33;2.50;99.90
54832;DHT22;40730;53.068;6.572;2022-12-07T16:10:58;2.50;99.90
54832;DHT22;40730;53.068;6.572;2022-12-07T16:13:24;2.50;99.90
54832;DHT22;40730;53.068;6.572;2022-12-07T16:15:50;2.50;99.90
54832;DHT22;40730;53.068;6.572;2022-12-07T16:18:15;2.50;99.90
54832;DHT22;40730;53.068;6.572;2022-12-07T16:20:41;2.50;99.90
54832;DHT22;40730;53.068;6.572;2022-12-07T16:23:06;2.50;99.90
54832;DHT22;40730;53.068;6.572;2022-12-07T16:25:32;2.50;99.90
54832;DHT22;40730;53.068;6.572;2022-12-07T16:27:58;2.60;99.90
54832;DHT22;40730;53.068;6.572;2022-12-07T16:30:24;2.60;99.90
54832;DHT22;40730;53.068;6.572;2022-12-07T16:32:51;2.60;99.90
54832;DHT22;40730;53.068;6.572;2022-12-07T16:35:16;2.70;99.90
54832;DHT22;40730;53.068;6.572;2022-12-07T16:37:42;2.70;99.90
54832;DHT22;40730;53.068;6.572;2022-12-07T16:40:08;2.70;99.90
54832;DHT22;40730;53.068;6.572;2022-12-07T16:42:34;2.80;99.90
54832;DHT22;40730;53.068;6.572;2022-12-07T16:45:01;2.90;99.90
54832;DHT22;40730;53.068;6.572;2022-12-07T16:47:27;2.90;99.90
54832;DHT22;40730;53.068;6.572;2022-12-07T16:49:52;2.90;99.90
54832;DHT22;40730;53.068;6.572;2022-12-07T16:52:19;3.00;99.90
54832;DHT22;40730;53.068;6.572;2022-12-07T16:54:46;3.00;99.90
54832;DHT22;40730;53.068;6.572;2022-12-07T16:57:12;3.00;99.90
54832;DHT22;40730;53.068;6.572;2022-12-07T16:59:37;3.10;99.90
54832;DHT22;40730;53.068;6.572;2022-12-07T17:02:03;3.10;99.90
54832;DHT22;40730;53.068;6.572;2022-12-07T17:04:29;3.10;99.90
54832;DHT22;40730;53.068;6.572;2022-12-07T17:06:54;3.10;99.90
54832;DHT22;40730;53.068;6.572;2022-12-07T17:09:20;3.10;99.90
54832;DHT22;40730;53.068;6.572;2022-12-07T17:11:46;3.10;99.90
54832;DHT22;40730;53.068;6.572;2022-12-07T17:14:12;3.20;99.90
54832;DHT22;40730;53.068;6.572;2022-12-07T17:16:57;3.20;99.90
54832;DHT22;40730;53.068;6.572;2022-12-07T17:19:22;3.20;99.90
54832;DHT22;40730;53.068;6.572;2022-12-07T17:21:48;3.20;99.90
54832;DHT22;40730;53.068;6.572;2022-12-07T17:24:16;3.20;99.90
54832;DHT22;40730;53.068;6.572;2022-12-07T17:26:43;3.10;99.90
54832;DHT22;40730;53.068;6.572;2022-12-07T17:29:12;3.10;99.90
54832;DHT22;40730;53.068;6.572;2022-12-07T17:31:38;3.20;99.90
54832;DHT22;40730;53.068;6.572;2022-12-07T17:34:08;3.10;99.90
54832;DHT22;40730;53.068;6.572;2022-12-07T17:36:34;3.00;99.90
54832;DHT22;40730;53.068;6.572;2022-12-07T17:39:00;3.10;99.90
54832;DHT22;40730;53.068;6.572;2022-12-07T17:41:28;3.10;99.90
54832;DHT22;40730;53.068;6.572;2022-12-07T17:44:17;3.00;99.90
54832;DHT22;40730;53.068;6.572;2022-12-07T17:46:44;3.00;99.90
54832;DHT22;40730;53.068;6.572;2022-12-07T17:49:12;3.00;99.90
54832;DHT22;40730;53.068;6.572;2022-12-07T17:51:38;3.00;99.90
54832;DHT22;40730;53.068;6.572;2022-12-07T17:54:22;3.10;99.90
54832;DHT22;40730;53.068;6.572;2022-12-07T17:56:48;3.00;99.90
54832;DHT22;40730;53.068;6.572;2022-12-07T17:59:14;3.00;99.90